sensor_id;sensor_type;location;lat;lon;timestamp;P1;durP1;ratioP1;P2;durP2;ratioP2
1953;SDS011;977;42.704;23.354;2022-07-04T00:00:19;4.23;;;3.27;;
1953;SDS011;977;42.704;23.354;2022-07-04T00:02:45;3.20;;;2.90;;
1953;SDS011;977;42.704;23.354;2022-07-04T00:05:12;4.87;;;2.90;;
1953;SDS011;977;42.704;23.354;2022-07-04T00:07:44;3.03;;;2.83;;
1953;SDS011;977;42.704;23.354;2022-07-04T00:10:11;5.37;;;2.87;;
1953;SDS011;977;42.704;23.354;2022-07-04T00:12:39;2.40;;;2.20;;
1953;SDS011;977;42.704;23.354;2022-07-04T00:15:05;5.20;;;3.10;;
1953;SDS011;977;42.704;23.354;2022-07-04T00:17:31;4.27;;;2.80;;
1953;SDS011;977;42.704;23.354;2022-07-04T00:19:57;3.30;;;2.97;;
1953;SDS011;977;42.704;23.354;2022-07-04T00:22:23;2.63;;;2.50;;
1953;SDS011;977;42.704;23.354;2022-07-04T00:24:48;2.50;;;2.40;;
1953;SDS011;977;42.704;23.354;2022-07-04T00:27:14;10.00;;;3.17;;
1953;SDS011;977;42.704;23.354;2022-07-04T00:29:39;2.70;;;2.43;;
1953;SDS011;977;42.704;23.354;2022-07-04T00:32:05;3.10;;;2.30;;
1953;SDS011;977;42.704;23.354;2022-07-04T00:34:31;3.40;;;2.77;;
1953;SDS011;977;42.704;23.354;2022-07-04T00:36:57;2.47;;;2.30;;
1953;SDS011;977;42.704;23.354;2022-07-04T00:39:22;2.83;;;2.63;;
1953;SDS011;977;42.704;23.354;2022-07-04T00:41:48;3.20;;;2.90;;
1953;SDS011;977;42.704;23.354;2022-07-04T00:44:13;3.50;;;2.17;;
1953;SDS011;977;42.704;23.354;2022-07-04T00:46:42;2.73;;;2.53;;
1953;SDS011;977;42.704;23.354;2022-07-04T00:49:09;2.20;;;2.10;;
1953;SDS011;977;42.704;23.354;2022-07-04T00:51:39;2.87;;;2.50;;
1953;SDS011;977;42.704;23.354;2022-07-04T00:54:06;2.70;;;2.50;;
1953;SDS011;977;42.704;23.354;2022-07-04T00:56:35;2.40;;;2.30;;
1953;SDS011;977;42.704;23.354;2022-07-04T00:59:01;3.20;;;2.80;;
1953;SDS011;977;42.704;23.354;2022-07-04T01:01:26;3.33;;;2.83;;
1953;SDS011;977;42.704;23.354;2022-07-04T01:03:52;3.00;;;2.80;;
1953;SDS011;977;42.704;23.354;2022-07-04T01:06:19;3.47;;;2.40;;
1953;SDS011;977;42.704;23.354;2022-07-04T01:08:45;3.60;;;2.70;;
1953;SDS011;977;42.704;23.354;2022-07-04T01:11:11;2.13;;;2.00;;
1953;SDS011;977;42.704;23.354;2022-07-04T01:13:37;2.60;;;2.40;;
1953;SDS011;977;42.704;23.354;2022-07-04T01:16:03;11.00;;;2.93;;
1953;SDS011;977;42.704;23.354;2022-07-04T01:18:29;9.47;;;3.30;;
1953;SDS011;977;42.704;23.354;2022-07-04T01:20:56;3.30;;;2.37;;
1953;SDS011;977;42.704;23.354;2022-07-04T01:23:22;2.90;;;2.70;;
1953;SDS011;977;42.704;23.354;2022-07-04T01:25:47;3.57;;;2.70;;
1953;SDS011;977;42.704;23.354;2022-07-04T01:28:20;3.00;;;2.70;;
1953;SDS011;977;42.704;23.354;2022-07-04T01:30:47;4.50;;;3.33;;
1953;SDS011;977;42.704;23.354;2022-07-04T01:33:13;3.13;;;2.93;;
1953;SDS011;977;42.704;23.354;2022-07-04T01:35:38;3.07;;;2.77;;
1953;SDS011;977;42.704;23.354;2022-07-04T01:38:04;4.73;;;3.70;;
1953;SDS011;977;42.704;23.354;2022-07-04T01:40:29;4.70;;;2.83;;
1953;SDS011;977;42.704;23.354;2022-07-04T01:42:55;4.07;;;3.67;;
1953;SDS011;977;42.704;23.354;2022-07-04T01:45:21;2.77;;;2.57;;
1953;SDS011;977;42.704;23.354;2022-07-04T01:47:46;6.50;;;3.00;;
1953;SDS011;977;42.704;23.354;2022-07-04T01:50:12;2.80;;;2.60;;
1953;SDS011;977;42.704;23.354;2022-07-04T01:52:38;3.93;;;3.40;;
1953;SDS011;977;42.704;23.354;2022-07-04T01:55:05;5.27;;;3.50;;
1953;SDS011;977;42.704;23.354;2022-07-04T01:57:31;2.70;;;2.27;;
1953;SDS011;977;42.704;23.354;2022-07-04T01:59:56;5.43;;;2.80;;
1953;SDS011;977;42.704;23.354;2022-07-04T02:02:40;5.33;;;2.90;;
1953;SDS011;977;42.704;23.354;2022-07-04T02:05:06;2.40;;;2.20;;
1953;SDS011;977;42.704;23.354;2022-07-04T02:07:32;2.73;;;2.53;;
1953;SDS011;977;42.704;23.354;2022-07-04T02:09:57;4.33;;;3.17;;
1953;SDS011;977;42.704;23.354;2022-07-04T02:12:23;2.97;;;2.50;;
1953;SDS011;977;42.704;23.354;2022-07-04T02:15:07;3.67;;;2.70;;
1953;SDS011;977;42.704;23.354;2022-07-04T02:17:33;3.93;;;2.70;;
1953;SDS011;977;42.704;23.354;2022-07-04T02:19:58;6.67;;;3.50;;
1953;SDS011;977;42.704;23.354;2022-07-04T02:22:24;3.33;;;3.03;;
1953;SDS011;977;42.704;23.354;2022-07-04T02:24:49;3.03;;;2.77;;
1953;SDS011;977;42.704;23.354;2022-07-04T02:27:15;3.07;;;2.80;;
1953;SDS011;977;42.704;23.354;2022-07-04T02:29:40;7.87;;;3.80;;
1953;SDS011;977;42.704;23.354;2022-07-04T02:32:06;12.00;;;3.23;;
1953;SDS011;977;42.704;23.354;2022-07-04T02:34:32;8.43;;;2.57;;
1953;SDS011;977;42.704;23.354;2022-07-04T02:36:57;5.33;;;2.87;;
1953;SDS011;977;42.704;23.354;2022-07-04T02:39:23;6.40;;;2.67;;
1953;SDS011;977;42.704;23.354;2022-07-04T02:41:49;4.87;;;3.70;;
1953;SDS011;977;42.704;23.354;2022-07-04T02:44:14;5.00;;;3.57;;
1953;SDS011;977;42.704;23.354;2022-07-04T02:46:40;7.50;;;3.97;;
1953;SDS011;977;42.704;23.354;2022-07-04T02:49:06;5.93;;;3.67;;
1953;SDS011;977;42.704;23.354;2022-07-04T02:51:31;6.47;;;3.90;;
1953;SDS011;977;42.704;23.354;2022-07-04T02:53:57;26.57;;;4.93;;
1953;SDS011;977;42.704;23.354;2022-07-04T02:56:23;5.50;;;4.00;;
1953;SDS011;977;42.704;23.354;2022-07-04T02:58:48;4.40;;;4.00;;
1953;SDS011;977;42.704;23.354;2022-07-04T03:01:14;6.20;;;4.10;;
1953;SDS011;977;42.704;23.354;2022-07-04T03:03:40;4.77;;;3.80;;
1953;SDS011;977;42.704;23.354;2022-07-04T03:06:08;3.73;;;3.27;;
1953;SDS011;977;42.704;23.354;2022-07-04T03:08:35;8.67;;;5.10;;
1953;SDS011;977;42.704;23.354;2022-07-04T03:11:01;7.80;;;4.10;;
1953;SDS011;977;42.704;23.354;2022-07-04T03:13:26;12.03;;;4.03;;
1953;SDS011;977;42.704;23.354;2022-07-04T03:15:52;4.83;;;3.67;;
1953;SDS011;977;42.704;23.354;2022-07-04T03:18:18;6.60;;;4.70;;
1953;SDS011;977;42.704;23.354;2022-07-04T03:20:44;5.10;;;3.40;;
1953;SDS011;977;42.704;23.354;2022-07-04T03:23:10;3.90;;;2.83;;
1953;SDS011;977;42.704;23.354;2022-07-04T03:25:35;4.57;;;3.37;;
1953;SDS011;977;42.704;23.354;2022-07-04T03:28:01;3.90;;;3.20;;
1953;SDS011;977;42.704;23.354;2022-07-04T03:30:27;3.53;;;3.00;;
1953;SDS011;977;42.704;23.354;2022-07-04T03:32:53;4.43;;;3.50;;
1953;SDS011;977;42.704;23.354;2022-07-04T03:35:18;3.80;;;2.90;;
1953;SDS011;977;42.704;23.354;2022-07-04T03:37:44;4.13;;;3.17;;
1953;SDS011;977;42.704;23.354;2022-07-04T03:40:09;4.70;;;3.00;;
1953;SDS011;977;42.704;23.354;2022-07-04T03:42:35;5.50;;;3.87;;
1953;SDS011;977;42.704;23.354;2022-07-04T03:45:01;4.07;;;3.30;;
1953;SDS011;977;42.704;23.354;2022-07-04T03:47:26;3.37;;;3.17;;
1953;SDS011;977;42.704;23.354;2022-07-04T03:49:52;13.30;;;3.13;;
1953;SDS011;977;42.704;23.354;2022-07-04T03:52:17;4.30;;;3.00;;
1953;SDS011;977;42.704;23.354;2022-07-04T03:54:42;2.60;;;2.30;;
1953;SDS011;977;42.704;23.354;2022-07-04T03:57:09;2.83;;;2.63;;
1953;SDS011;977;42.704;23.354;2022-07-04T03:59:34;6.20;;;3.30;;
1953;SDS011;977;42.704;23.354;2022-07-04T04:02:00;4.00;;;3.43;;
1953;SDS011;977;42.704;23.354;2022-07-04T04:04:25;4.97;;;3.57;;
1953;SDS011;977;42.704;23.354;2022-07-04T04:07:09;4.90;;;3.00;;
1953;SDS011;977;42.704;23.354;2022-07-04T04:09:35;3.03;;;2.83;;
1953;SDS011;977;42.704;23.354;2022-07-04T04:12:01;2.80;;;2.60;;
1953;SDS011;977;42.704;23.354;2022-07-04T04:14:26;3.67;;;2.93;;
1953;SDS011;977;42.704;23.354;2022-07-04T04:16:57;7.37;;;2.80;;
1953;SDS011;977;42.704;23.354;2022-07-04T04:19:30;3.33;;;2.40;;
1953;SDS011;977;42.704;23.354;2022-07-04T04:21:55;2.50;;;2.30;;
1953;SDS011;977;42.704;23.354;2022-07-04T04:24:21;3.60;;;2.17;;
1953;SDS011;977;42.704;23.354;2022-07-04T04:26:46;7.10;;;2.37;;
1953;SDS011;977;42.704;23.354;2022-07-04T04:29:12;2.33;;;2.23;;
1953;SDS011;977;42.704;23.354;2022-07-04T04:31:38;5.57;;;2.87;;
1953;SDS011;977;42.704;23.354;2022-07-04T04:34:06;1.90;;;1.80;;
1953;SDS011;977;42.704;23.354;2022-07-04T04:36:32;2.67;;;2.10;;
1953;SDS011;977;42.704;23.354;2022-07-04T04:38:58;2.90;;;2.50;;
1953;SDS011;977;42.704;23.354;2022-07-04T04:41:23;2.60;;;2.50;;
1953;SDS011;977;42.704;23.354;2022-07-04T04:43:49;2.07;;;1.97;;
1953;SDS011;977;42.704;23.354;2022-07-04T04:46:14;2.60;;;2.40;;
1953;SDS011;977;42.704;23.354;2022-07-04T04:48:40;2.43;;;2.20;;
1953;SDS011;977;42.704;23.354;2022-07-04T04:51:08;2.70;;;2.50;;
1953;SDS011;977;42.704;23.354;2022-07-04T04:53:34;2.67;;;2.47;;
1953;SDS011;977;42.704;23.354;2022-07-04T04:56:00;3.07;;;2.87;;
1953;SDS011;977;42.704;23.354;2022-07-04T04:58:26;13.63;;;2.73;;
1953;SDS011;977;42.704;23.354;2022-07-04T05:00:51;3.43;;;2.87;;
1953;SDS011;977;42.704;23.354;2022-07-04T05:03:17;3.20;;;2.90;;
1953;SDS011;977;42.704;23.354;2022-07-04T05:05:45;4.53;;;2.40;;
1953;SDS011;977;42.704;23.354;2022-07-04T05:08:11;2.80;;;2.60;;
1953;SDS011;977;42.704;23.354;2022-07-04T05:10:37;8.97;;;3.73;;
1953;SDS011;977;42.704;23.354;2022-07-04T05:13:04;3.70;;;2.80;;
1953;SDS011;977;42.704;23.354;2022-07-04T05:15:30;4.00;;;3.00;;
1953;SDS011;977;42.704;23.354;2022-07-04T05:17:55;2.63;;;2.43;;
1953;SDS011;977;42.704;23.354;2022-07-04T05:20:21;3.77;;;2.57;;
1953;SDS011;977;42.704;23.354;2022-07-04T05:22:47;7.10;;;3.63;;
1953;SDS011;977;42.704;23.354;2022-07-04T05:25:12;4.20;;;2.80;;
1953;SDS011;977;42.704;23.354;2022-07-04T05:27:38;2.47;;;2.37;;
1953;SDS011;977;42.704;23.354;2022-07-04T05:30:05;2.87;;;2.30;;
1953;SDS011;977;42.704;23.354;2022-07-04T05:32:30;4.77;;;2.57;;
1953;SDS011;977;42.704;23.354;2022-07-04T05:34:56;4.03;;;2.10;;
1953;SDS011;977;42.704;23.354;2022-07-04T05:37:25;6.00;;;2.70;;
1953;SDS011;977;42.704;23.354;2022-07-04T05:39:51;2.00;;;1.90;;
1953;SDS011;977;42.704;23.354;2022-07-04T05:42:16;1.70;;;1.60;;
1953;SDS011;977;42.704;23.354;2022-07-04T05:47:31;2.80;;;2.60;;
1953;SDS011;977;42.704;23.354;2022-07-04T05:49:56;6.60;;;2.00;;
1953;SDS011;977;42.704;23.354;2022-07-04T05:52:23;15.60;;;2.30;;
1953;SDS011;977;42.704;23.354;2022-07-04T05:54:49;1.60;;;1.50;;
1953;SDS011;977;42.704;23.354;2022-07-04T05:57:14;2.20;;;2.10;;
1953;SDS011;977;42.704;23.354;2022-07-04T05:59:40;2.07;;;1.87;;
1953;SDS011;977;42.704;23.354;2022-07-04T06:02:05;2.67;;;2.10;;
1953;SDS011;977;42.704;23.354;2022-07-04T06:04:31;2.00;;;1.90;;
1953;SDS011;977;42.704;23.354;2022-07-04T06:06:56;2.50;;;2.30;;
1953;SDS011;977;42.704;23.354;2022-07-04T06:09:22;1.40;;;1.30;;
1953;SDS011;977;42.704;23.354;2022-07-04T06:11:47;1.83;;;1.73;;
1953;SDS011;977;42.704;23.354;2022-07-04T06:14:13;4.50;;;1.63;;
1953;SDS011;977;42.704;23.354;2022-07-04T06:16:39;1.90;;;1.80;;
1953;SDS011;977;42.704;23.354;2022-07-04T06:19:04;2.17;;;2.07;;
1953;SDS011;977;42.704;23.354;2022-07-04T06:21:30;2.97;;;1.93;;
1953;SDS011;977;42.704;23.354;2022-07-04T06:23:55;2.20;;;2.10;;
1953;SDS011;977;42.704;23.354;2022-07-04T06:26:22;2.43;;;2.23;;
1953;SDS011;977;42.704;23.354;2022-07-04T06:28:48;4.13;;;2.10;;
1953;SDS011;977;42.704;23.354;2022-07-04T06:31:14;3.10;;;2.17;;
1953;SDS011;977;42.704;23.354;2022-07-04T06:33:42;3.20;;;2.57;;
1953;SDS011;977;42.704;23.354;2022-07-04T06:36:27;2.80;;;2.53;;
1953;SDS011;977;42.704;23.354;2022-07-04T06:38:54;2.40;;;2.20;;
1953;SDS011;977;42.704;23.354;2022-07-04T06:41:29;2.43;;;2.20;;
1953;SDS011;977;42.704;23.354;2022-07-04T06:43:54;4.90;;;2.50;;
1953;SDS011;977;42.704;23.354;2022-07-04T06:46:20;2.27;;;2.07;;
1953;SDS011;977;42.704;23.354;2022-07-04T06:48:45;6.53;;;2.63;;
1953;SDS011;977;42.704;23.354;2022-07-04T06:51:11;2.07;;;1.97;;
1953;SDS011;977;42.704;23.354;2022-07-04T06:53:38;1.97;;;1.87;;
1953;SDS011;977;42.704;23.354;2022-07-04T06:56:45;1.63;;;1.53;;
1953;SDS011;977;42.704;23.354;2022-07-04T06:59:13;2.40;;;2.20;;
1953;SDS011;977;42.704;23.354;2022-07-04T07:01:39;2.10;;;2.00;;
1953;SDS011;977;42.704;23.354;2022-07-04T07:04:07;2.43;;;2.23;;
1953;SDS011;977;42.704;23.354;2022-07-04T07:06:33;7.17;;;2.23;;
1953;SDS011;977;42.704;23.354;2022-07-04T07:08:58;2.10;;;2.00;;
1953;SDS011;977;42.704;23.354;2022-07-04T07:11:24;3.17;;;2.40;;
1953;SDS011;977;42.704;23.354;2022-07-04T07:13:50;4.13;;;2.50;;
1953;SDS011;977;42.704;23.354;2022-07-04T07:16:16;2.33;;;2.13;;
1953;SDS011;977;42.704;23.354;2022-07-04T07:18:53;3.57;;;1.97;;
1953;SDS011;977;42.704;23.354;2022-07-04T07:21:18;3.87;;;2.33;;
1953;SDS011;977;42.704;23.354;2022-07-04T07:23:46;4.03;;;2.27;;
1953;SDS011;977;42.704;23.354;2022-07-04T07:26:14;2.07;;;1.97;;
1953;SDS011;977;42.704;23.354;2022-07-04T07:28:47;3.63;;;1.83;;
1953;SDS011;977;42.704;23.354;2022-07-04T07:31:12;2.13;;;2.03;;
1953;SDS011;977;42.704;23.354;2022-07-04T07:33:39;2.20;;;2.00;;
1953;SDS011;977;42.704;23.354;2022-07-04T07:36:05;4.50;;;2.20;;
1953;SDS011;977;42.704;23.354;2022-07-04T07:38:30;2.60;;;2.20;;
1953;SDS011;977;42.704;23.354;2022-07-04T07:40:56;6.83;;;2.43;;
1953;SDS011;977;42.704;23.354;2022-07-04T07:43:31;2.83;;;2.63;;
1953;SDS011;977;42.704;23.354;2022-07-04T07:45:57;2.50;;;2.40;;
1953;SDS011;977;42.704;23.354;2022-07-04T07:48:22;2.00;;;1.90;;
1953;SDS011;977;42.704;23.354;2022-07-04T07:50:48;2.13;;;2.03;;
1953;SDS011;977;42.704;23.354;2022-07-04T07:56:35;2.40;;;2.30;;
1953;SDS011;977;42.704;23.354;2022-07-04T07:59:09;3.23;;;2.37;;
1953;SDS011;977;42.704;23.354;2022-07-04T08:01:46;2.50;;;2.30;;
1953;SDS011;977;42.704;23.354;2022-07-04T08:04:26;2.60;;;2.40;;
1953;SDS011;977;42.704;23.354;2022-07-04T08:07:36;2.33;;;2.23;;
1953;SDS011;977;42.704;23.354;2022-07-04T08:13:18;2.47;;;2.37;;
1953;SDS011;977;42.704;23.354;2022-07-04T08:15:43;2.43;;;2.23;;
1953;SDS011;977;42.704;23.354;2022-07-04T08:18:09;3.47;;;3.17;;
1953;SDS011;977;42.704;23.354;2022-07-04T08:20:34;2.30;;;2.20;;
1953;SDS011;977;42.704;23.354;2022-07-04T08:23:03;2.50;;;2.40;;
1953;SDS011;977;42.704;23.354;2022-07-04T08:25:29;2.77;;;2.57;;
1953;SDS011;977;42.704;23.354;2022-07-04T08:27:55;3.33;;;2.97;;
1953;SDS011;977;42.704;23.354;2022-07-04T08:30:22;3.13;;;2.87;;
1953;SDS011;977;42.704;23.354;2022-07-04T08:32:50;6.30;;;3.07;;
1953;SDS011;977;42.704;23.354;2022-07-04T08:35:20;6.27;;;3.37;;
1953;SDS011;977;42.704;23.354;2022-07-04T08:37:46;8.63;;;2.73;;
1953;SDS011;977;42.704;23.354;2022-07-04T08:40:27;3.50;;;3.20;;
1953;SDS011;977;42.704;23.354;2022-07-04T08:42:54;2.97;;;2.53;;
1953;SDS011;977;42.704;23.354;2022-07-04T08:45:23;4.07;;;3.43;;
1953;SDS011;977;42.704;23.354;2022-07-04T08:48:18;3.80;;;3.23;;
1953;SDS011;977;42.704;23.354;2022-07-04T08:50:54;3.13;;;2.83;;
1953;SDS011;977;42.704;23.354;2022-07-04T08:53:22;3.40;;;3.20;;
1953;SDS011;977;42.704;23.354;2022-07-04T08:59:29;4.07;;;3.47;;
1953;SDS011;977;42.704;23.354;2022-07-04T09:09:14;4.30;;;3.17;;
1953;SDS011;977;42.704;23.354;2022-07-04T09:22:35;3.40;;;3.17;;
1953;SDS011;977;42.704;23.354;2022-07-04T09:25:04;3.43;;;3.23;;
1953;SDS011;977;42.704;23.354;2022-07-04T09:27:39;3.07;;;2.87;;
1953;SDS011;977;42.704;23.354;2022-07-04T09:30:18;2.77;;;2.60;;
1953;SDS011;977;42.704;23.354;2022-07-04T09:32:46;2.93;;;2.73;;
1953;SDS011;977;42.704;23.354;2022-07-04T09:35:24;3.60;;;3.33;;
1953;SDS011;977;42.704;23.354;2022-07-04T09:38:12;3.53;;;3.33;;
1953;SDS011;977;42.704;23.354;2022-07-04T09:41:09;2.80;;;2.67;;
1953;SDS011;977;42.704;23.354;2022-07-04T09:44:07;3.40;;;3.10;;
1953;SDS011;977;42.704;23.354;2022-07-04T09:46:43;3.20;;;3.00;;
1953;SDS011;977;42.704;23.354;2022-07-04T09:52:31;3.07;;;2.87;;
1953;SDS011;977;42.704;23.354;2022-07-04T09:55:29;3.93;;;3.63;;
1953;SDS011;977;42.704;23.354;2022-07-04T09:58:03;4.90;;;3.50;;
1953;SDS011;977;42.704;23.354;2022-07-04T10:00:43;3.37;;;3.07;;
1953;SDS011;977;42.704;23.354;2022-07-04T10:03:21;5.27;;;3.80;;
1953;SDS011;977;42.704;23.354;2022-07-04T10:06:37;3.67;;;3.37;;
1953;SDS011;977;42.704;23.354;2022-07-04T10:09:05;3.23;;;3.00;;
1953;SDS011;977;42.704;23.354;2022-07-04T10:22:05;4.00;;;3.80;;
1953;SDS011;977;42.704;23.354;2022-07-04T10:39:10;4.20;;;3.97;;
1953;SDS011;977;42.704;23.354;2022-07-04T10:42:25;3.43;;;3.20;;
1953;SDS011;977;42.704;23.354;2022-07-04T10:45:01;7.83;;;3.80;;
1953;SDS011;977;42.704;23.354;2022-07-04T10:47:36;4.53;;;3.63;;
1953;SDS011;977;42.704;23.354;2022-07-04T10:50:04;4.10;;;3.80;;
1953;SDS011;977;42.704;23.354;2022-07-04T10:52:32;6.73;;;4.20;;
1953;SDS011;977;42.704;23.354;2022-07-04T10:54:59;3.63;;;3.43;;
1953;SDS011;977;42.704;23.354;2022-07-04T10:57:38;7.80;;;4.10;;
1953;SDS011;977;42.704;23.354;2022-07-04T11:00:06;3.80;;;3.50;;
1953;SDS011;977;42.704;23.354;2022-07-04T11:02:35;3.50;;;3.30;;
1953;SDS011;977;42.704;23.354;2022-07-04T11:13:13;5.23;;;4.17;;
1953;SDS011;977;42.704;23.354;2022-07-04T11:19:14;7.90;;;4.40;;
1953;SDS011;977;42.704;23.354;2022-07-04T11:21:43;6.27;;;3.70;;
1953;SDS011;977;42.704;23.354;2022-07-04T11:24:30;5.30;;;3.97;;
1953;SDS011;977;42.704;23.354;2022-07-04T11:27:01;4.53;;;4.20;;
1953;SDS011;977;42.704;23.354;2022-07-04T11:29:35;6.93;;;4.53;;
1953;SDS011;977;42.704;23.354;2022-07-04T11:32:01;5.20;;;4.80;;
1953;SDS011;977;42.704;23.354;2022-07-04T11:34:32;4.60;;;3.70;;
1953;SDS011;977;42.704;23.354;2022-07-04T11:37:02;4.47;;;4.07;;
1953;SDS011;977;42.704;23.354;2022-07-04T11:39:33;4.50;;;4.10;;
1953;SDS011;977;42.704;23.354;2022-07-04T11:45:32;4.23;;;3.73;;
1953;SDS011;977;42.704;23.354;2022-07-04T11:48:27;4.20;;;3.90;;
1953;SDS011;977;42.704;23.354;2022-07-04T11:50:55;4.73;;;4.30;;
1953;SDS011;977;42.704;23.354;2022-07-04T11:53:24;4.83;;;4.40;;
1953;SDS011;977;42.704;23.354;2022-07-04T11:55:55;4.40;;;4.00;;
1953;SDS011;977;42.704;23.354;2022-07-04T11:58:22;4.37;;;3.97;;
1953;SDS011;977;42.704;23.354;2022-07-04T12:00:48;5.33;;;4.20;;
1953;SDS011;977;42.704;23.354;2022-07-04T12:03:21;4.00;;;3.70;;
1953;SDS011;977;42.704;23.354;2022-07-04T12:05:59;4.63;;;4.33;;
1953;SDS011;977;42.704;23.354;2022-07-04T12:08:30;4.20;;;3.90;;
1953;SDS011;977;42.704;23.354;2022-07-04T12:10:57;5.97;;;4.03;;
1953;SDS011;977;42.704;23.354;2022-07-04T12:13:28;4.77;;;4.37;;
1953;SDS011;977;42.704;23.354;2022-07-04T12:16:10;5.10;;;4.70;;
1953;SDS011;977;42.704;23.354;2022-07-04T12:18:52;3.50;;;3.20;;
1953;SDS011;977;42.704;23.354;2022-07-04T12:21:51;4.63;;;4.23;;
1953;SDS011;977;42.704;23.354;2022-07-04T12:24:25;5.33;;;4.83;;
1953;SDS011;977;42.704;23.354;2022-07-04T12:26:54;4.40;;;4.03;;
1953;SDS011;977;42.704;23.354;2022-07-04T12:29:23;4.70;;;4.30;;
1953;SDS011;977;42.704;23.354;2022-07-04T12:31:53;4.03;;;3.63;;
1953;SDS011;977;42.704;23.354;2022-07-04T12:34:30;4.03;;;3.73;;
1953;SDS011;977;42.704;23.354;2022-07-04T12:36:58;4.60;;;4.30;;
1953;SDS011;977;42.704;23.354;2022-07-04T12:39:29;6.20;;;4.03;;
1953;SDS011;977;42.704;23.354;2022-07-04T12:44:43;4.40;;;4.10;;
1953;SDS011;977;42.704;23.354;2022-07-04T12:47:17;3.73;;;3.43;;
1953;SDS011;977;42.704;23.354;2022-07-04T12:49:43;3.67;;;3.40;;
1953;SDS011;977;42.704;23.354;2022-07-04T12:52:19;6.00;;;4.17;;
1953;SDS011;977;42.704;23.354;2022-07-04T12:55:06;4.13;;;3.83;;
1953;SDS011;977;42.704;23.354;2022-07-04T12:57:43;5.10;;;4.13;;
1953;SDS011;977;42.704;23.354;2022-07-04T13:00:09;4.20;;;3.90;;
1953;SDS011;977;42.704;23.354;2022-07-04T13:02:37;7.00;;;3.90;;
1953;SDS011;977;42.704;23.354;2022-07-04T13:05:13;7.07;;;4.30;;
1953;SDS011;977;42.704;23.354;2022-07-04T13:10:39;4.00;;;3.70;;
1953;SDS011;977;42.704;23.354;2022-07-04T13:13:09;6.60;;;3.97;;
1953;SDS011;977;42.704;23.354;2022-07-04T13:15:35;4.20;;;3.90;;
1953;SDS011;977;42.704;23.354;2022-07-04T13:18:01;4.53;;;4.13;;
1953;SDS011;977;42.704;23.354;2022-07-04T13:20:27;4.33;;;4.00;;
1953;SDS011;977;42.704;23.354;2022-07-04T13:23:05;9.83;;;4.10;;
1953;SDS011;977;42.704;23.354;2022-07-04T13:25:33;4.67;;;4.37;;
1953;SDS011;977;42.704;23.354;2022-07-04T13:28:06;4.20;;;3.90;;
1953;SDS011;977;42.704;23.354;2022-07-04T13:30:41;4.50;;;4.10;;
1953;SDS011;977;42.704;23.354;2022-07-04T13:33:14;4.00;;;3.70;;
1953;SDS011;977;42.704;23.354;2022-07-04T13:35:50;5.40;;;4.97;;
1953;SDS011;977;42.704;23.354;2022-07-04T13:41:21;4.60;;;4.27;;
1953;SDS011;977;42.704;23.354;2022-07-04T13:43:46;4.17;;;3.87;;
1953;SDS011;977;42.704;23.354;2022-07-04T13:46:12;5.07;;;4.57;;
1953;SDS011;977;42.704;23.354;2022-07-04T13:48:38;4.67;;;4.27;;
1953;SDS011;977;42.704;23.354;2022-07-04T13:51:13;5.20;;;4.70;;
1953;SDS011;977;42.704;23.354;2022-07-04T13:53:39;5.13;;;4.70;;
1953;SDS011;977;42.704;23.354;2022-07-04T13:56:07;4.70;;;4.30;;
1953;SDS011;977;42.704;23.354;2022-07-04T13:58:42;6.43;;;4.60;;
1953;SDS011;977;42.704;23.354;2022-07-04T14:01:09;5.13;;;4.63;;
1953;SDS011;977;42.704;23.354;2022-07-04T14:03:35;5.17;;;4.77;;
1953;SDS011;977;42.704;23.354;2022-07-04T14:06:03;4.80;;;4.40;;
1953;SDS011;977;42.704;23.354;2022-07-04T14:08:32;4.13;;;3.83;;
1953;SDS011;977;42.704;23.354;2022-07-04T14:11:08;6.13;;;5.53;;
1953;SDS011;977;42.704;23.354;2022-07-04T14:16:56;4.40;;;4.10;;
1953;SDS011;977;42.704;23.354;2022-07-04T14:19:22;4.43;;;4.03;;
1953;SDS011;977;42.704;23.354;2022-07-04T14:21:47;5.30;;;4.90;;
1953;SDS011;977;42.704;23.354;2022-07-04T14:24:13;4.63;;;4.23;;
1953;SDS011;977;42.704;23.354;2022-07-04T14:26:39;4.67;;;4.27;;
1953;SDS011;977;42.704;23.354;2022-07-04T14:33:11;5.07;;;4.67;;
1953;SDS011;977;42.704;23.354;2022-07-04T14:36:03;5.03;;;4.63;;
1953;SDS011;977;42.704;23.354;2022-07-04T14:38:31;4.03;;;3.70;;
1953;SDS011;977;42.704;23.354;2022-07-04T14:41:03;5.90;;;5.33;;
1953;SDS011;977;42.704;23.354;2022-07-04T14:43:39;4.70;;;4.30;;
1953;SDS011;977;42.704;23.354;2022-07-04T14:46:05;4.63;;;4.23;;
1953;SDS011;977;42.704;23.354;2022-07-04T14:48:31;5.50;;;5.10;;
1953;SDS011;977;42.704;23.354;2022-07-04T14:50:56;6.50;;;5.00;;
1953;SDS011;977;42.704;23.354;2022-07-04T14:53:22;5.30;;;4.80;;
1953;SDS011;977;42.704;23.354;2022-07-04T14:55:48;4.80;;;4.40;;
1953;SDS011;977;42.704;23.354;2022-07-04T14:58:14;4.77;;;4.40;;
1953;SDS011;977;42.704;23.354;2022-07-04T15:00:39;4.90;;;4.53;;
1953;SDS011;977;42.704;23.354;2022-07-04T15:03:05;5.13;;;4.23;;
1953;SDS011;977;42.704;23.354;2022-07-04T15:05:30;5.80;;;4.80;;
1953;SDS011;977;42.704;23.354;2022-07-04T15:07:56;7.43;;;4.73;;
1953;SDS011;977;42.704;23.354;2022-07-04T15:10:22;4.60;;;4.30;;
1953;SDS011;977;42.704;23.354;2022-07-04T15:12:48;4.23;;;3.93;;
1953;SDS011;977;42.704;23.354;2022-07-04T15:15:14;4.77;;;4.37;;
1953;SDS011;977;42.704;23.354;2022-07-04T15:17:39;8.80;;;5.13;;
1953;SDS011;977;42.704;23.354;2022-07-04T15:20:05;6.10;;;5.33;;
1953;SDS011;977;42.704;23.354;2022-07-04T15:22:49;4.70;;;4.40;;
1953;SDS011;977;42.704;23.354;2022-07-04T15:25:33;5.00;;;4.60;;
1953;SDS011;977;42.704;23.354;2022-07-04T15:27:59;4.17;;;3.90;;
1953;SDS011;977;42.704;23.354;2022-07-04T15:30:25;4.50;;;4.10;;
1953;SDS011;977;42.704;23.354;2022-07-04T15:32:50;4.83;;;4.00;;
1953;SDS011;977;42.704;23.354;2022-07-04T15:35:16;5.03;;;4.47;;
1953;SDS011;977;42.704;23.354;2022-07-04T15:37:41;4.10;;;3.80;;
1953;SDS011;977;42.704;23.354;2022-07-04T15:40:07;4.07;;;3.73;;
1953;SDS011;977;42.704;23.354;2022-07-04T15:42:36;4.27;;;3.97;;
1953;SDS011;977;42.704;23.354;2022-07-04T15:45:01;4.50;;;4.10;;
1953;SDS011;977;42.704;23.354;2022-07-04T15:47:28;5.67;;;4.63;;
1953;SDS011;977;42.704;23.354;2022-07-04T15:49:54;4.20;;;3.83;;
1953;SDS011;977;42.704;23.354;2022-07-04T15:52:19;4.63;;;4.10;;
1953;SDS011;977;42.704;23.354;2022-07-04T15:54:47;5.17;;;4.77;;
1953;SDS011;977;42.704;23.354;2022-07-04T15:57:13;4.53;;;4.23;;
1953;SDS011;977;42.704;23.354;2022-07-04T15:59:44;4.33;;;3.97;;
1953;SDS011;977;42.704;23.354;2022-07-04T16:02:15;6.00;;;4.53;;
1953;SDS011;977;42.704;23.354;2022-07-04T16:04:41;3.97;;;3.70;;
1953;SDS011;977;42.704;23.354;2022-07-04T16:07:06;4.87;;;4.37;;
1953;SDS011;977;42.704;23.354;2022-07-04T16:09:32;4.23;;;3.93;;
1953;SDS011;977;42.704;23.354;2022-07-04T16:11:58;4.70;;;3.73;;
1953;SDS011;977;42.704;23.354;2022-07-04T16:14:23;4.10;;;3.73;;
1953;SDS011;977;42.704;23.354;2022-07-04T16:16:49;4.03;;;3.73;;
1953;SDS011;977;42.704;23.354;2022-07-04T16:19:14;4.30;;;4.00;;
1953;SDS011;977;42.704;23.354;2022-07-04T16:21:49;3.70;;;3.47;;
1953;SDS011;977;42.704;23.354;2022-07-04T16:24:15;3.93;;;3.63;;
1953;SDS011;977;42.704;23.354;2022-07-04T16:26:40;4.53;;;4.20;;
1953;SDS011;977;42.704;23.354;2022-07-04T16:29:06;5.80;;;3.97;;
1953;SDS011;977;42.704;23.354;2022-07-04T16:31:31;4.33;;;3.93;;
1953;SDS011;977;42.704;23.354;2022-07-04T16:34:02;7.20;;;4.00;;
1953;SDS011;977;42.704;23.354;2022-07-04T16:36:33;5.30;;;4.80;;
1953;SDS011;977;42.704;23.354;2022-07-04T16:39:05;4.37;;;3.97;;
1953;SDS011;977;42.704;23.354;2022-07-04T16:41:31;4.40;;;4.00;;
1953;SDS011;977;42.704;23.354;2022-07-04T16:43:57;3.40;;;3.20;;
1953;SDS011;977;42.704;23.354;2022-07-04T16:46:22;4.80;;;3.77;;
1953;SDS011;977;42.704;23.354;2022-07-04T16:48:48;4.00;;;3.67;;
1953;SDS011;977;42.704;23.354;2022-07-04T16:51:13;3.67;;;3.47;;
1953;SDS011;977;42.704;23.354;2022-07-04T16:53:39;5.67;;;4.07;;
1953;SDS011;977;42.704;23.354;2022-07-04T16:56:04;4.07;;;3.77;;